Time;durP1;ratioP1;P1;durP2;ratioP2;P2;SDS_P1;SDS_P2;PMS_P1;PMS_P2;Temp;Humidity;BMP_temperature;BMP_pressure;BME280_temperature;BME280_humidity;BME280_pressure;Samples;Min_cycle;Max_cycle;Signal;HPM_P1;HPM_P2
2021/01/28 00:00:09;;;;;;;13.32;8.45;;;9.10;79.10;;;;;;5043477;28;20037;-80
2021/01/28 00:02:35;;;;;;;15.95;9.60;;;9.10;79.10;;;;;;5051192;28;20025;-80
2021/01/28 00:05:01;;;;;;;14.93;9.05;;;9.10;79.10;;;;;;5033729;28;20037;-80
2021/01/28 00:07:27;;;;;;;13.85;9.23;;;9.10;79.10;;;;;;5012966;28;20036;-80
2021/01/28 00:09:53;;;;;;;15.93;9.45;;;9.10;79.10;;;;;;5052210;28;20519;-80
2021/01/28 00:12:19;;;;;;;12.95;8.57;;;9.10;79.10;;;;;;5052283;28;20025;-80
2021/01/28 00:14:45;;;;;;;12.88;8.50;;;9.10;79.10;;;;;;5039646;28;20033;-80
2021/01/28 00:17:11;;;;;;;14.27;8.98;;;9.10;79.10;;;;;;5021135;28;20423;-80
2021/01/28 00:19:37;;;;;;;12.07;8.15;;;9.10;79.10;;;;;;5029458;28;20122;-80
2021/01/28 00:22:03;;;;;;;13.90;8.93;;;9.10;79.10;;;;;;5036650;28;20037;-81
2021/01/28 00:24:29;;;;;;;13.90;9.43;;;9.10;79.10;;;;;;5026743;28;20039;-80
2021/01/28 00:26:54;;;;;;;14.00;8.88;;;9.10;79.10;;;;;;5018812;28;20028;-80
2021/01/28 00:29:20;;;;;;;14.05;9.40;;;9.10;79.10;;;;;;5018046;28;20036;-80
2021/01/28 00:31:46;;;;;;;15.05;8.82;;;9.10;79.10;;;;;;5027176;28;20032;-80
2021/01/28 00:34:12;;;;;;;13.57;8.77;;;9.10;79.10;;;;;;5024860;28;20477;-80
2021/01/28 00:36:37;;;;;;;13.13;8.63;;;9.10;79.10;;;;;;5014581;28;20469;-80
2021/01/28 00:39:05;;;;;;;14.85;9.02;;;9.10;79.10;;;;;;5033819;28;20181;-80
2021/01/28 00:41:31;;;;;;;12.25;8.27;;;9.10;79.70;;;;;;5043575;28;20033;-80
2021/01/28 00:43:56;;;;;;;13.68;8.65;;;9.10;79.00;;;;;;5038863;28;20093;-80
2021/01/28 00:46:22;;;;;;;13.35;7.80;;;9.10;79.00;;;;;;5040913;28;20107;-81
2021/01/28 00:48:52;;;;;;;13.32;8.75;;;9.20;79.10;;;;;;5041184;28;20036;-81
2021/01/28 00:51:18;;;;;;;14.30;8.95;;;9.10;79.10;;;;;;5041043;28;20079;-80
2021/01/28 00:53:43;;;;;;;13.65;8.63;;;9.20;79.10;;;;;;5041093;28;20473;-80
2021/01/28 00:56:09;;;;;;;14.13;8.32;;;9.10;79.10;;;;;;5057627;28;20036;-81
2021/01/28 00:58:44;;;;;;;11.70;8.00;;;9.10;79.10;;;;;;5042381;28;20056;-80
2021/01/28 01:01:10;;;;;;;13.75;8.32;;;9.10;79.00;;;;;;5040896;28;20031;-80
2021/01/28 01:03:36;;;;;;;12.20;8.18;;;9.20;79.20;;;;;;5057074;28;20028;-80
2021/01/28 01:06:02;;;;;;;11.93;7.22;;;9.20;79.10;;;;;;5040767;28;20024;-80
2021/01/28 01:08:32;;;;;;;14.07;8.65;;;9.20;79.10;;;;;;5041548;28;20025;-81
2021/01/28 01:11:13;;;;;;;11.32;8.45;;;9.20;79.10;;;;;;5042712;28;20039;-81
2021/01/28 01:13:42;;;;;;;13.55;8.43;;;9.20;79.20;;;;;;5040898;28;20032;-81
2021/01/28 01:16:19;;;;;;;11.98;8.73;;;9.20;79.10;;;;;;5056847;28;20025;-80
2021/01/28 01:18:50;;;;;;;13.68;7.60;;;9.20;79.10;;;;;;5035165;28;20496;-80
2021/01/28 01:21:17;;;;;;;12.80;8.30;;;9.20;79.20;;;;;;5050315;28;20029;-81
2021/01/28 01:23:46;;;;;;;13.13;8.60;;;9.20;79.10;;;;;;5025144;28;20039;-80
2021/01/28 01:26:18;;;;;;;12.77;8.30;;;9.20;79.20;;;;;;5028654;28;20048;-80
2021/01/28 01:28:47;;;;;;;14.82;7.63;;;9.20;79.10;;;;;;5020348;28;20040;-81
2021/01/28 01:31:41;;;;;;;11.88;7.97;;;9.20;79.10;;;;;;5023968;28;20025;-81
2021/01/28 01:34:07;;;;;;;12.32;7.80;;;9.20;79.10;;;;;;5026929;28;20031;-80
2021/01/28 01:36:32;;;;;;;12.73;8.35;;;9.20;79.20;;;;;;5056841;28;20116;-80
2021/01/28 01:39:01;;;;;;;13.20;8.38;;;9.20;79.20;;;;;;5040129;28;20040;-80
2021/01/28 01:41:39;;;;;;;13.13;8.43;;;9.20;79.20;;;;;;5026974;28;20569;-80
2021/01/28 01:44:08;;;;;;;11.90;7.97;;;9.20;79.10;;;;;;5023055;28;20087;-81
2021/01/28 01:46:39;;;;;;;11.63;8.10;;;9.20;79.20;;;;;;5032634;28;20060;-80
2021/01/28 01:49:15;;;;;;;11.88;8.15;;;9.20;79.20;;;;;;5024044;28;20131;-81
2021/01/28 01:51:43;;;;;;;12.85;7.90;;;9.20;79.20;;;;;;5040282;28;20042;-80
2021/01/28 01:54:46;;;;;;;12.75;7.57;;;9.20;79.20;;;;;;5043112;28;20549;-79
2021/01/28 01:57:22;;;;;;;13.88;8.32;;;9.20;79.20;;;;;;5039567;28;20025;-81
2021/01/28 02:00:18;;;;;;;13.15;8.07;;;9.20;79.20;;;;;;5056486;28;20040;-81
2021/01/28 02:02:46;;;;;;;12.82;7.60;;;9.20;79.30;;;;;;5073818;28;20040;-81
2021/01/28 02:05:40;;;;;;;13.85;7.90;;;9.20;79.20;;;;;;5045966;28;20055;-80
2021/01/28 02:08:24;;;;;;;11.90;7.53;;;9.20;79.20;;;;;;5047787;28;20459;-80
2021/01/28 02:10:53;;;;;;;12.88;8.23;;;9.20;79.20;;;;;;5039342;28;20453;-80
2021/01/28 02:13:31;;;;;;;13.20;7.82;;;9.20;79.20;;;;;;5057973;28;20029;-81
2021/01/28 02:16:21;;;;;;;12.82;7.00;;;9.20;79.30;;;;;;5036313;28;20024;-80
2021/01/28 02:19:24;;;;;;;16.42;9.43;;;9.20;79.20;;;;;;5044614;28;20036;-80
2021/01/28 02:21:50;;;;;;;13.25;7.80;;;9.20;79.20;;;;;;5052813;28;20115;-80
2021/01/28 02:24:25;;;;;;;12.32;7.47;;;9.20;79.20;;;;;;5028862;28;20459;-80
2021/01/28 02:26:51;;;;;;;;;;;9.20;79.30;;;;;;5038758;28;20040;-81
2021/01/28 02:29:40;;;;;;;11.13;7.00;;;9.20;79.20;;;;;;5058579;28;20356;-80
2021/01/28 02:32:06;;;;;;;13.27;8.02;;;9.20;79.10;;;;;;5022472;28;20532;-81
2021/01/28 02:34:35;;;;;;;13.68;8.43;;;9.20;79.20;;;;;;5045106;28;20067;-80
2021/01/28 02:37:24;;;;;;;13.35;8.77;;;9.20;79.30;;;;;;5038585;28;20024;-82
2021/01/28 02:40:25;;;;;;;12.82;8.50;;;9.20;79.40;;;;;;5047599;28;20127;-80
2021/01/28 02:43:16;;;;;;;13.17;7.87;;;9.20;79.30;;;;;;5059006;28;20037;-81
2021/01/28 02:46:15;;;;;;;12.30;7.63;;;9.20;79.20;;;;;;5039634;28;20322;-80
2021/01/28 02:49:04;;;;;;;13.18;7.93;;;9.20;79.30;;;;;;5041499;28;20040;-80
2021/01/28 02:51:45;;;;;;;12.30;7.20;;;9.20;79.30;;;;;;5037539;28;20036;-80
2021/01/28 02:54:19;;;;;;;13.67;7.87;;;9.20;79.30;;;;;;5049075;28;20023;-81
2021/01/28 02:56:44;;;;;;;15.10;8.50;;;9.20;79.30;;;;;;5029429;28;20275;-80
2021/01/28 02:59:11;;;;;;;15.20;8.55;;;9.20;79.30;;;;;;5021876;28;20032;-79
2021/01/28 03:01:42;;;;;;;14.77;8.52;;;9.20;79.40;;;;;;5035529;28;20070;-81
2021/01/28 03:04:11;;;;;;;13.35;8.13;;;9.20;79.40;;;;;;5034060;28;20119;-80
2021/01/28 03:07:00;;;;;;;15.73;8.35;;;9.20;79.40;;;;;;5052680;28;20029;-81
2021/01/28 03:09:26;;;;;;;15.88;8.63;;;9.20;79.30;;;;;;5034510;28;20041;-80
2021/01/28 03:12:10;;;;;;;13.23;7.97;;;9.20;79.40;;;;;;5042753;28;20031;-80
2021/01/28 03:14:55;;;;;;;13.27;8.32;;;9.20;79.30;;;;;;5057699;28;20166;-82
2021/01/28 03:17:21;;;;;;;15.85;8.93;;;9.20;79.30;;;;;;5034834;28;20128;-80
2021/01/28 03:19:53;;;;;;;15.23;8.30;;;9.30;79.40;;;;;;5028898;28;20040;-80
2021/01/28 03:22:20;;;;;;;14.93;8.55;;;9.20;79.30;;;;;;5009168;28;20044;-81
2021/01/28 03:24:49;;;;;;;14.57;8.45;;;9.20;79.30;;;;;;5038711;28;20039;-80
2021/01/28 03:27:18;;;;;;;16.38;9.32;;;9.20;79.40;;;;;;5021879;28;20035;-81
2021/01/28 03:29:48;;;;;;;16.35;8.55;;;9.30;79.40;;;;;;5034758;28;20032;-80
2021/01/28 03:32:14;;;;;;;14.98;8.77;;;9.20;79.40;;;;;;5038270;28;20042;-81
2021/01/28 03:34:40;;;;;;;14.63;8.88;;;9.20;79.40;;;;;;5038324;28;20127;-80
2021/01/28 03:37:07;;;;;;;14.10;8.18;;;9.20;79.40;;;;;;5021808;28;20120;-80
2021/01/28 03:39:44;;;;;;;16.73;9.02;;;9.30;79.50;;;;;;5020010;28;20037;-81
2021/01/28 03:42:10;;;;;;;14.95;7.97;;;9.30;79.40;;;;;;5018362;28;20032;-80
2021/01/28 03:44:37;;;;;;;15.50;8.77;;;9.30;79.40;;;;;;5017853;28;20469;-80
2021/01/28 03:47:03;;;;;;;14.23;8.50;;;9.30;79.40;;;;;;4998923;28;20029;-80
2021/01/28 03:49:45;;;;;;;15.15;8.85;;;9.30;79.40;;;;;;5019142;28;20136;-80
2021/01/28 03:52:16;;;;;;;14.15;8.25;;;9.30;79.40;;;;;;4990326;28;20033;-82
2021/01/28 03:54:58;;;;;;;14.27;8.52;;;9.30;79.40;;;;;;5003927;28;20087;-80
2021/01/28 03:57:33;;;;;;;13.38;8.52;;;9.30;79.40;;;;;;5004210;28;20057;-81
2021/01/28 04:00:09;;;;;;;13.38;7.82;;;9.30;79.40;;;;;;5018493;28;20036;-80
2021/01/28 04:02:44;;;;;;;14.98;8.00;;;9.30;79.70;;;;;;5019387;28;20021;-80
2021/01/28 04:05:25;;;;;;;13.88;8.43;;;9.30;79.40;;;;;;5052030;28;20029;-81
2021/01/28 04:08:10;;;;;;;13.07;7.85;;;9.30;79.40;;;;;;5052373;28;20102;-80
2021/01/28 04:10:52;;;;;;;13.10;7.57;;;9.30;79.40;;;;;;5034329;28;20056;-80
2021/01/28 04:13:18;;;;;;;15.23;8.48;;;9.30;79.40;;;;;;5001514;28;20029;-80
2021/01/28 04:15:48;;;;;;;15.65;8.98;;;9.30;79.40;;;;;;5002916;28;20036;-80
2021/01/28 04:18:17;;;;;;;13.80;8.20;;;9.30;79.50;;;;;;5008780;28;20033;-80
2021/01/28 04:20:48;;;;;;;14.77;8.43;;;9.20;79.40;;;;;;5021086;28;20036;-80
2021/01/28 04:23:16;;;;;;;13.05;8.23;;;9.30;79.50;;;;;;5022052;28;20112;-79
2021/01/28 04:26:11;;;;;;;;;;;9.30;79.50;;;;;;5013555;28;20068;-80
2021/01/28 04:28:42;;;;;;;10.35;6.45;;;9.20;79.30;;;;;;5037853;28;20357;-81
2021/01/28 04:31:37;;;;;;;14.43;7.93;;;9.30;79.20;;;;;;5041636;28;20401;-80
2021/01/28 04:34:10;;;;;;;14.80;8.13;;;9.30;79.30;;;;;;5022565;28;20575;-80
2021/01/28 04:36:37;;;;;;;13.77;8.25;;;9.30;79.40;;;;;;5005020;28;20123;-80
2021/01/28 04:39:25;;;;;;;13.63;8.68;;;9.30;79.50;;;;;;5043653;28;20485;-80
2021/01/28 04:41:55;;;;;;;14.63;7.97;;;9.30;79.50;;;;;;5038603;28;20033;-81
2021/01/28 04:44:21;;;;;;;13.32;8.30;;;9.30;79.50;;;;;;5041263;28;20115;-81
2021/01/28 04:46:59;;;;;;;13.27;8.02;;;9.30;79.50;;;;;;5028140;28;20036;-80
2021/01/28 04:49:52;;;;;;;14.30;8.20;;;9.30;79.50;;;;;;5040404;28;20044;-80
2021/01/28 04:52:33;;;;;;;14.38;8.25;;;9.30;79.50;;;;;;5052535;28;20039;-81
2021/01/28 04:55:23;;;;;;;14.38;8.60;;;9.20;79.40;;;;;;5050121;28;20113;-80
2021/01/28 04:57:53;;;;;;;14.65;8.02;;;9.30;79.50;;;;;;5041350;28;20033;-80
2021/01/28 05:00:28;;;;;;;14.23;7.85;;;9.30;79.50;;;;;;5026611;28;20045;-80
2021/01/28 05:03:45;;;;;;;13.43;7.57;;;9.30;79.50;;;;;;5058790;28;20032;-80
2021/01/28 05:06:20;;;;;;;13.38;8.50;;;9.30;79.60;;;;;;5043397;28;20029;-79
2021/01/28 05:09:07;;;;;;;13.60;8.07;;;9.20;79.40;;;;;;5041218;28;20048;-79
2021/01/28 05:12:08;;;;;;;13.70;7.57;;;9.30;79.50;;;;;;5026786;28;20032;-80
2021/01/28 05:15:11;;;;;;;13.70;8.13;;;9.30;79.50;;;;;;5043261;28;20548;-80
2021/01/28 05:18:18;;;;;;;12.27;7.68;;;9.20;79.50;;;;;;5059915;28;20031;-80
2021/01/28 05:21:27;;;;;;;11.55;7.07;;;9.20;79.50;;;;;;5056705;28;20035;-80
2021/01/28 05:24:22;;;;;;;12.48;7.28;;;9.20;79.50;;;;;;5045729;28;20463;-80
2021/01/28 05:26:48;;;;;;;;;;;9.20;79.50;;;;;;5057545;28;20028;-81
2021/01/28 05:29:30;;;;;;;11.85;6.93;;;9.20;79.50;;;;;;5036168;28;20379;-80
2021/01/28 05:32:10;;;;;;;11.93;7.40;;;9.20;79.40;;;;;;5027801;28;20037;-80
2021/01/28 05:35:11;;;;;;;11.38;7.43;;;9.20;79.50;;;;;;5039879;28;20039;-80
2021/01/28 05:38:06;;;;;;;13.10;8.00;;;9.20;79.70;;;;;;5038619;28;20045;-80
2021/01/28 05:40:53;;;;;;;12.20;7.03;;;9.20;79.60;;;;;;5022274;28;20076;-80
2021/01/28 05:43:29;;;;;;;12.73;7.88;;;9.20;79.70;;;;;;5055623;28;20023;-77
2021/01/28 05:46:17;;;;;;;14.18;7.85;;;9.20;79.70;;;;;;5053766;28;20032;-79
2021/01/28 05:49:19;;;;;;;11.93;7.63;;;9.20;79.70;;;;;;5034694;28;20036;-77
2021/01/28 05:51:48;;;;;;;14.13;7.93;;;9.20;79.60;;;;;;5065824;28;20033;-78
2021/01/28 05:54:24;;;;;;;11.68;7.07;;;9.20;79.60;;;;;;5035305;28;20040;-78
2021/01/28 05:57:18;;;;;;;12.38;7.15;;;9.20;79.70;;;;;;5042388;28;20116;-78
2021/01/28 06:00:02;;;;;;;12.35;7.35;;;9.20;79.60;;;;;;5055937;28;20036;-78
2021/01/28 06:02:48;;;;;;;12.55;7.35;;;9.20;79.70;;;;;;5056255;28;20090;-78
2021/01/28 06:06:01;;;;;;;10.38;6.13;;;9.20;79.70;;;;;;5032820;28;20108;-78
2021/01/28 06:08:56;;;;;;;12.80;7.43;;;9.20;79.70;;;;;;5046112;28;20055;-77
2021/01/28 06:11:35;;;;;;;13.45;7.75;;;9.20;79.70;;;;;;5050451;28;20029;-80
2021/01/28 06:14:27;;;;;;;10.45;6.53;;;9.20;79.60;;;;;;5058714;28;20048;-77
2021/01/28 06:17:21;;;;;;;12.13;7.28;;;9.20;79.80;;;;;;5046915;28;20112;-78
2021/01/28 06:20:37;;;;;;;11.35;6.88;;;9.20;79.70;;;;;;5068546;28;20504;-78
2021/01/28 06:23:25;;;;;;;11.43;6.57;;;9.20;79.80;;;;;;5045027;28;20067;-76
2021/01/28 06:26:06;;;;;;;10.73;6.13;;;9.20;79.80;;;;;;5073523;28;20056;-76
2021/01/28 06:28:53;;;;;;;9.15;5.78;;;9.20;79.70;;;;;;5040320;28;20036;-77
2021/01/28 06:31:43;;;;;;;11.63;6.88;;;9.10;79.70;;;;;;5026816;28;20021;-76
2021/01/28 06:34:37;;;;;;;11.45;6.78;;;9.20;79.90;;;;;;5058245;28;20056;-77
2021/01/28 06:37:58;;;;;;;10.07;5.93;;;9.20;79.90;;;;;;5049285;28;20093;-78
2021/01/28 06:41:02;;;;;;;8.65;5.28;;;9.20;80.00;;;;;;5020159;28;20033;-77
2021/01/28 06:44:18;;;;;;;9.32;5.57;;;9.20;79.80;;;;;;5040977;28;20032;-78
2021/01/28 06:47:17;;;;;;;8.63;5.10;;;9.20;79.80;;;;;;5054316;28;20033;-78
2021/01/28 06:50:26;;;;;;;8.55;4.72;;;9.10;79.90;;;;;;5043533;28;20503;-78
2021/01/28 06:52:58;;;;;;;8.13;5.13;;;9.20;79.90;;;;;;5038475;28;20025;-78
2021/01/28 06:56:10;;;;;;;7.75;4.80;;;9.20;79.90;;;;;;5067174;28;20068;-78
2021/01/28 06:59:05;;;;;;;8.65;5.30;;;9.20;80.00;;;;;;5037774;28;20541;-77
2021/01/28 07:01:56;;;;;;;9.55;5.32;;;9.20;79.90;;;;;;5053233;28;20029;-80
2021/01/28 07:05:01;;;;;;;8.07;4.68;;;9.10;80.00;;;;;;5054478;28;20033;-77
2021/01/28 07:07:37;;;;;;;7.18;4.53;;;9.10;79.90;;;;;;5054291;28;20464;-76
2021/01/28 07:10:39;;;;;;;8.45;4.45;;;9.10;79.90;;;;;;5052031;28;20032;-78
2021/01/28 07:13:28;;;;;;;6.38;4.40;;;9.10;79.90;;;;;;5031553;28;20634;-78
2021/01/28 07:16:47;;;;;;;7.57;4.80;;;9.10;79.90;;;;;;5043627;28;20389;-77
2021/01/28 07:19:20;;;;;;;8.55;4.60;;;9.10;80.00;;;;;;5050134;28;20039;-77
2021/01/28 07:21:49;;;;;;;7.30;4.30;;;9.10;79.90;;;;;;5037855;28;20035;-77
2021/01/28 07:24:35;;;;;;;7.05;4.05;;;9.10;80.00;;;;;;5038349;28;20017;-78
2021/01/28 07:27:07;;;;;;;6.40;3.90;;;9.10;80.00;;;;;;5054425;28;20119;-77
2021/01/28 07:29:50;;;;;;;7.35;4.20;;;9.10;80.00;;;;;;5054836;28;20024;-77
2021/01/28 07:32:21;;;;;;;6.55;3.90;;;9.10;80.00;;;;;;5053052;28;20479;-76
2021/01/28 07:35:24;;;;;;;7.63;3.95;;;9.10;80.00;;;;;;5039094;28;20519;-76
2021/01/28 07:37:59;;;;;;;6.47;3.85;;;9.10;80.10;;;;;;5049739;28;20017;-76
2021/01/28 07:41:05;;;;;;;5.70;3.65;;;9.10;80.00;;;;;;5032374;28;20044;-76
2021/01/28 07:43:53;;;;;;;6.03;3.85;;;9.10;80.10;;;;;;5051946;28;20071;-76
2021/01/28 07:46:26;;;;;;;6.43;3.92;;;9.10;79.90;;;;;;5019220;28;20389;-76
2021/01/28 07:49:18;;;;;;;6.93;3.80;;;9.10;80.00;;;;;;5024509;28;20041;-77
2021/01/28 07:52:03;;;;;;;5.85;3.22;;;9.10;80.20;;;;;;5035966;28;20135;-77
2021/01/28 07:54:28;;;;;;;6.18;3.45;;;9.10;80.00;;;;;;5016599;28;20486;-76
2021/01/28 07:57:05;;;;;;;6.25;3.60;;;9.10;80.10;;;;;;5029461;28;20083;-77
2021/01/28 07:59:49;;;;;;;5.20;3.20;;;9.00;80.00;;;;;;5034407;28;20064;-76
2021/01/28 08:02:27;;;;;;;6.10;3.50;;;9.10;80.10;;;;;;5022134;28;20033;-78
2021/01/28 08:05:06;;;;;;;5.60;3.17;;;9.10;80.10;;;;;;5033678;28;20032;-77
2021/01/28 08:07:47;;;;;;;5.63;3.55;;;9.10;80.20;;;;;;5044553;28;20100;-76
2021/01/28 08:10:23;;;;;;;6.40;3.92;;;9.10;80.10;;;;;;5024999;28;20078;-75
2021/01/28 08:12:51;;;;;;;5.95;3.50;;;9.00;80.00;;;;;;5030970;28;20036;-75
2021/01/28 08:15:21;;;;;;;4.68;2.88;;;9.10;80.10;;;;;;5034412;28;20025;-75
2021/01/28 08:18:03;;;;;;;5.30;3.38;;;9.00;80.00;;;;;;5046983;28;20053;-78
2021/01/28 08:20:31;;;;;;;5.30;3.00;;;9.10;80.20;;;;;;5033137;28;20033;-77
2021/01/28 08:23:01;;;;;;;5.20;2.97;;;9.00;80.00;;;;;;5033281;28;20020;-77
2021/01/28 08:25:31;;;;;;;5.75;3.42;;;9.10;80.10;;;;;;5029915;28;20024;-80
2021/01/28 08:28:10;;;;;;;4.25;2.78;;;9.10;80.10;;;;;;5022508;28;20392;-77
2021/01/28 08:30:35;;;;;;;4.55;2.55;;;9.00;80.10;;;;;;5027548;28;20079;-77
2021/01/28 08:33:02;;;;;;;5.28;2.97;;;9.00;80.00;;;;;;4991741;28;20389;-77
2021/01/28 08:35:45;;;;;;;4.93;2.90;;;9.00;80.00;;;;;;5052132;28;20465;-77
2021/01/28 08:38:16;;;;;;;4.93;2.90;;;9.00;80.20;;;;;;5025032;28;20543;-80
2021/01/28 08:40:44;;;;;;;5.63;2.75;;;9.00;80.10;;;;;;5044175;28;20132;-77
2021/01/28 08:43:20;;;;;;;4.90;3.00;;;9.00;80.00;;;;;;5030928;28;20025;-78
2021/01/28 08:45:46;;;;;;;3.97;2.58;;;9.00;80.10;;;;;;5049585;28;20538;-77
2021/01/28 08:48:15;;;;;;;5.40;3.20;;;9.00;80.00;;;;;;5050534;28;20444;-79
2021/01/28 08:50:44;;;;;;;4.57;2.72;;;9.00;80.10;;;;;;5042854;28;20087;-78
2021/01/28 08:53:30;;;;;;;4.15;2.63;;;9.00;80.10;;;;;;5065766;28;20013;-78
2021/01/28 08:56:16;;;;;;;5.03;2.50;;;9.00;80.20;;;;;;5042860;28;20040;-77
2021/01/28 08:58:42;;;;;;;4.20;2.65;;;9.00;80.10;;;;;;5071119;28;20111;-79
2021/01/28 09:01:10;;;;;;;4.18;2.53;;;9.00;80.00;;;;;;5029462;28;20058;-77
2021/01/28 09:03:40;;;;;;;5.03;2.92;;;8.90;80.00;;;;;;5039664;28;20033;-77
2021/01/28 09:06:07;;;;;;;4.78;3.00;;;9.00;80.10;;;;;;5038136;28;20024;-78
2021/01/28 09:08:39;;;;;;;4.30;2.85;;;9.00;80.10;;;;;;5024037;28;20029;-77
2021/01/28 09:11:28;;;;;;;4.85;3.05;;;9.00;80.20;;;;;;5033246;28;20039;-79
2021/01/28 09:14:05;;;;;;;4.25;2.97;;;8.90;80.20;;;;;;5063190;28;20541;-77
2021/01/28 09:16:33;;;;;;;4.82;2.85;;;8.90;80.10;;;;;;5074818;28;20028;-77
2021/01/28 09:19:30;;;;;;;4.43;2.47;;;9.00;80.10;;;;;;5040316;28;20028;-78
2021/01/28 09:22:02;;;;;;;3.97;2.50;;;8.90;80.20;;;;;;5048906;28;20051;-78
2021/01/28 09:24:45;;;;;;;3.83;2.40;;;8.90;80.00;;;;;;5034065;28;20108;-77
2021/01/28 09:27:20;;;;;;;4.18;2.60;;;8.90;80.20;;;;;;5040818;28;20539;-77
2021/01/28 09:29:48;;;;;;;4.20;2.72;;;8.90;80.10;;;;;;5056980;28;20039;-79
2021/01/28 09:32:22;;;;;;;4.93;2.70;;;8.90;80.00;;;;;;5054745;28;20438;-77
2021/01/28 09:35:38;;;;;;;4.53;2.67;;;8.90;80.10;;;;;;5074290;28;20566;-81
2021/01/28 09:38:12;;;;;;;3.58;2.55;;;8.90;80.20;;;;;;5031607;28;20091;-78
2021/01/28 09:40:42;;;;;;;3.67;2.55;;;8.90;80.00;;;;;;5054260;28;20032;-80
2021/01/28 09:43:30;;;;;;;4.15;2.40;;;8.90;80.00;;;;;;5029870;28;20042;-79
2021/01/28 09:46:17;;;;;;;3.80;2.33;;;8.90;80.20;;;;;;5030088;28;20056;-79
2021/01/28 09:48:47;;;;;;;4.65;2.70;;;8.90;80.20;;;;;;5027802;28;20111;-79
2021/01/28 09:51:24;;;;;;;4.97;3.08;;;8.90;80.10;;;;;;5003649;28;20047;-79
2021/01/28 09:53:58;;;;;;;4.00;2.72;;;8.90;80.10;;;;;;5019799;28;20025;-79
2021/01/28 09:56:23;;;;;;;4.00;2.40;;;8.90;80.20;;;;;;5019691;28;20033;-80
2021/01/28 09:58:49;;;;;;;4.18;2.53;;;8.90;80.10;;;;;;5053685;28;20031;-77
2021/01/28 10:01:15;;;;;;;3.58;2.60;;;8.90;80.10;;;;;;5002769;28;20124;-76
2021/01/28 10:03:41;;;;;;;4.00;2.65;;;8.90;80.10;;;;;;5019795;28;20025;-76
2021/01/28 10:06:07;;;;;;;4.35;2.65;;;8.90;80.20;;;;;;5031842;28;20037;-78
2021/01/28 10:08:32;;;;;;;4.75;3.05;;;8.90;80.10;;;;;;4984014;28;20064;-78
2021/01/28 10:10:58;;;;;;;4.63;2.83;;;8.90;80.10;;;;;;5018555;28;20404;-78
2021/01/28 10:13:24;;;;;;;3.58;2.45;;;8.90;80.10;;;;;;5018574;28;20075;-78
2021/01/28 10:15:49;;;;;;;4.25;2.65;;;8.90;80.10;;;;;;5033522;28;20036;-78
2021/01/28 10:18:15;;;;;;;4.55;2.90;;;8.90;80.10;;;;;;5019498;28;20048;-77
2021/01/28 10:20:42;;;;;;;4.53;2.67;;;8.90;80.10;;;;;;5028227;28;20445;-77
2021/01/28 10:23:08;;;;;;;4.47;2.70;;;8.90;80.10;;;;;;5027106;28;20044;-77
2021/01/28 10:25:34;;;;;;;5.90;3.58;;;8.90;80.10;;;;;;5019404;28;20370;-77
2021/01/28 10:28:00;;;;;;;3.95;2.75;;;8.90;80.10;;;;;;5018438;28;20036;-77
2021/01/28 10:30:26;;;;;;;3.65;2.65;;;8.90;80.10;;;;;;5011466;28;20539;-79
2021/01/28 10:32:53;;;;;;;4.07;2.60;;;8.90;80.10;;;;;;5016957;28;20120;-77
2021/01/28 10:35:23;;;;;;;4.18;2.60;;;8.90;80.10;;;;;;5030538;28;20731;-79
2021/01/28 10:37:49;;;;;;;4.75;3.08;;;8.90;80.20;;;;;;5029912;28;20025;-76
2021/01/28 10:40:16;;;;;;;3.78;2.72;;;8.90;80.10;;;;;;5024459;28;20078;-76
2021/01/28 10:42:43;;;;;;;4.43;2.90;;;8.90;80.20;;;;;;5038783;28;20040;-76
2021/01/28 10:45:18;;;;;;;4.72;2.95;;;8.90;80.10;;;;;;5032555;28;20115;-76
2021/01/28 10:47:44;;;;;;;;;;;8.90;80.20;;;;;;5073276;28;20481;-76
2021/01/28 10:50:11;;;;;;;3.30;2.38;;;8.90;80.10;;;;;;5054725;28;19908;-76
2021/01/28 10:52:37;;;;;;;4.50;3.40;;;8.90;79.90;;;;;;5055250;28;20378;-77
2021/01/28 10:55:05;;;;;;;4.90;2.72;;;8.90;80.00;;;;;;5037793;28;20032;-76
2021/01/28 10:57:31;;;;;;;4.40;2.95;;;8.90;80.20;;;;;;5029971;28;20063;-76
2021/01/28 10:59:57;;;;;;;4.68;3.00;;;8.80;80.10;;;;;;5022146;28;20071;-75
2021/01/28 11:02:23;;;;;;;3.85;2.78;;;8.90;80.20;;;;;;5058586;28;20437;-77
2021/01/28 11:04:49;;;;;;;4.78;3.30;;;8.90;80.20;;;;;;5042071;28;20473;-76
2021/01/28 11:07:14;;;;;;;5.50;3.03;;;8.90;80.20;;;;;;5061138;28;20028;-75
2021/01/28 11:09:40;;;;;;;5.10;3.20;;;8.90;80.20;;;;;;5065890;28;20067;-77
2021/01/28 11:12:07;;;;;;;4.57;3.05;;;8.90;80.20;;;;;;5072416;28;20035;-77
2021/01/28 11:14:33;;;;;;;4.00;2.83;;;8.90;80.20;;;;;;5018644;28;20085;-76
2021/01/28 11:16:59;;;;;;;4.78;3.13;;;8.90;80.20;;;;;;5032182;28;20029;-77
2021/01/28 11:19:24;;;;;;;4.03;2.80;;;8.90;80.20;;;;;;5038156;28;20028;-76
2021/01/28 11:21:50;;;;;;;4.00;2.90;;;8.90;80.20;;;;;;5038061;28;20047;-75
2021/01/28 11:24:16;;;;;;;4.50;3.13;;;8.90;80.20;;;;;;5036943;28;20040;-76
2021/01/28 11:26:42;;;;;;;4.65;3.08;;;8.90;80.20;;;;;;5033938;28;20039;-77
2021/01/28 11:29:07;;;;;;;4.65;3.40;;;8.90;80.20;;;;;;5026021;28;20059;-76
2021/01/28 11:31:36;;;;;;;4.68;3.33;;;8.90;80.20;;;;;;5071827;28;20477;-76
2021/01/28 11:34:02;;;;;;;4.18;3.00;;;8.90;80.20;;;;;;5049927;28;20020;-76
2021/01/28 11:36:29;;;;;;;3.40;2.60;;;8.90;80.20;;;;;;5052043;28;20073;-75
2021/01/28 11:38:54;;;;;;;5.00;3.17;;;8.90;80.20;;;;;;5052306;28;20097;-77
2021/01/28 11:41:20;;;;;;;4.43;3.42;;;8.90;80.20;;;;;;5034491;28;20439;-78
2021/01/28 11:43:46;;;;;;;4.85;3.55;;;8.90;80.20;;;;;;5035571;28;20082;-77
2021/01/28 11:46:12;;;;;;;4.75;3.28;;;8.90;80.20;;;;;;5037357;28;20164;-77
2021/01/28 11:48:38;;;;;;;5.72;4.10;;;8.90;80.20;;;;;;5069528;28;20029;-78
2021/01/28 11:51:03;;;;;;;4.95;3.60;;;8.90;80.20;;;;;;5039794;28;20041;-77
2021/01/28 11:53:29;;;;;;;4.53;3.17;;;8.90;80.20;;;;;;5046071;28;20025;-78
2021/01/28 11:55:55;;;;;;;5.32;3.78;;;8.90;80.20;;;;;;5017911;28;20420;-78
2021/01/28 11:58:22;;;;;;;6.00;4.18;;;8.90;80.20;;;;;;5004752;28;20376;-78
2021/01/28 12:00:48;;;;;;;5.13;3.83;;;8.90;80.20;;;;;;5033591;28;20031;-78
2021/01/28 12:03:14;;;;;;;5.13;3.58;;;8.90;80.20;;;;;;5058306;28;20035;-78
2021/01/28 12:05:40;;;;;;;4.72;3.47;;;8.90;80.20;;;;;;5039733;28;20029;-77
2021/01/28 12:08:06;;;;;;;5.32;3.78;;;8.90;80.20;;;;;;5037578;28;20036;-77
2021/01/28 12:10:33;;;;;;;5.43;3.72;;;8.90;80.10;;;;;;5072061;28;20106;-78
2021/01/28 12:12:59;;;;;;;4.60;3.40;;;9.00;80.20;;;;;;5034252;28;20029;-79
2021/01/28 12:15:26;;;;;;;6.45;4.20;;;9.00;80.20;;;;;;5035407;28;20021;-78
2021/01/28 12:17:53;;;;;;;5.88;4.10;;;9.00;80.20;;;;;;5042456;28;20108;-77
2021/01/28 12:20:23;;;;;;;5.63;4.13;;;8.90;80.10;;;;;;5053693;28;20034;-78
2021/01/28 12:22:49;;;;;;;5.80;3.80;;;9.00;80.10;;;;;;5053765;28;20033;-77
2021/01/28 12:25:15;;;;;;;5.13;3.75;;;9.00;80.10;;;;;;5053856;28;20455;-78
2021/01/28 12:27:40;;;;;;;5.78;4.30;;;9.00;80.70;;;;;;5053857;28;20119;-77
2021/01/28 12:30:09;;;;;;;5.38;3.83;;;9.00;80.10;;;;;;5036574;28;20025;-77
2021/01/28 12:32:35;;;;;;;5.63;3.97;;;9.00;80.10;;;;;;5053610;28;20025;-78
2021/01/28 12:35:01;;;;;;;5.88;4.10;;;9.00;80.10;;;;;;5036939;28;20028;-80
2021/01/28 12:37:26;;;;;;;5.97;4.22;;;9.00;80.00;;;;;;5035019;28;20090;-77
2021/01/28 12:39:52;;;;;;;5.47;3.95;;;9.00;80.00;;;;;;5047803;28;20049;-77
2021/01/28 12:42:18;;;;;;;5.68;4.00;;;9.00;80.00;;;;;;5037125;28;20069;-78
2021/01/28 12:44:44;;;;;;;5.70;4.05;;;9.00;80.00;;;;;;5051736;28;20040;-78
2021/01/28 12:47:09;;;;;;;5.75;4.10;;;9.00;80.00;;;;;;5049866;28;20032;-78
2021/01/28 12:49:35;;;;;;;4.97;3.83;;;9.00;80.00;;;;;;5057610;28;20469;-78
2021/01/28 12:52:01;;;;;;;5.45;4.03;;;9.00;80.00;;;;;;5056378;28;20021;-80
2021/01/28 12:54:26;;;;;;;5.35;3.80;;;9.00;80.10;;;;;;5057262;28;20487;-77
2021/01/28 12:56:52;;;;;;;4.75;3.70;;;9.00;80.00;;;;;;5041116;28;20031;-78
2021/01/28 12:59:18;;;;;;;4.72;3.70;;;9.10;80.10;;;;;;5023945;28;20037;-79
2021/01/28 13:01:44;;;;;;;5.65;3.92;;;9.10;80.10;;;;;;5040895;28;20040;-78
2021/01/28 13:04:09;;;;;;;5.22;3.70;;;9.10;80.00;;;;;;5024049;28;20487;-77
2021/01/28 13:06:35;;;;;;;5.95;4.30;;;9.10;80.00;;;;;;5036820;28;20036;-78
2021/01/28 13:09:01;;;;;;;5.35;3.90;;;9.10;80.00;;;;;;5030378;28;20032;-79
2021/01/28 13:11:27;;;;;;;5.30;4.00;;;9.10;80.70;;;;;;5065618;28;20036;-77
2021/01/28 13:13:52;;;;;;;4.68;3.40;;;9.10;80.00;;;;;;5039881;28;20028;-77
2021/01/28 13:16:18;;;;;;;4.88;3.72;;;9.10;80.00;;;;;;5036593;28;20029;-79
2021/01/28 13:18:45;;;;;;;5.35;3.90;;;9.10;80.00;;;;;;5054769;28;20025;-78
2021/01/28 13:21:10;;;;;;;4.63;3.63;;;9.10;80.00;;;;;;5053005;28;20044;-77
2021/01/28 13:23:36;;;;;;;5.50;3.67;;;9.10;80.00;;;;;;5056295;28;20438;-78
2021/01/28 13:26:04;;;;;;;5.65;3.88;;;9.10;80.00;;;;;;5037059;28;20190;-77
2021/01/28 13:28:29;;;;;;;4.78;3.63;;;9.10;80.00;;;;;;5056027;28;20093;-78
2021/01/28 13:30:55;;;;;;;4.93;3.80;;;9.10;80.00;;;;;;5021757;28;20501;-77
2021/01/28 13:33:21;;;;;;;4.68;3.40;;;9.10;80.00;;;;;;5062874;28;20470;-77